sensor_id;sensor_type;location;lat;lon;timestamp;P1;durP1;ratioP1;P2;durP2;ratioP2
29938;SDS011;16799;50.844;5.304;2022-10-31T00:01:13;23.63;;;16.23;;
29938;SDS011;16799;50.844;5.304;2022-10-31T00:03:42;46.10;;;19.40;;
29938;SDS011;16799;50.844;5.304;2022-10-31T00:06:07;29.53;;;17.20;;
29938;SDS011;16799;50.844;5.304;2022-10-31T00:08:33;27.90;;;18.33;;
29938;SDS011;16799;50.844;5.304;2022-10-31T00:10:59;34.17;;;18.73;;
29938;SDS011;16799;50.844;5.304;2022-10-31T00:13:24;38.47;;;19.33;;
29938;SDS011;16799;50.844;5.304;2022-10-31T00:15:50;28.03;;;18.73;;
29938;SDS011;16799;50.844;5.304;2022-10-31T00:18:16;29.33;;;17.70;;
29938;SDS011;16799;50.844;5.304;2022-10-31T00:20:41;29.97;;;19.20;;
29938;SDS011;16799;50.844;5.304;2022-10-31T00:23:07;33.67;;;19.50;;
29938;SDS011;16799;50.844;5.304;2022-10-31T00:25:34;35.40;;;16.87;;
29938;SDS011;16799;50.844;5.304;2022-10-31T00:28:02;21.27;;;16.73;;
29938;SDS011;16799;50.844;5.304;2022-10-31T00:30:29;33.87;;;16.53;;
29938;SDS011;16799;50.844;5.304;2022-10-31T00:32:55;28.07;;;16.43;;
29938;SDS011;16799;50.844;5.304;2022-10-31T00:35:20;25.30;;;18.30;;
29938;SDS011;16799;50.844;5.304;2022-10-31T00:37:46;40.33;;;19.43;;
29938;SDS011;16799;50.844;5.304;2022-10-31T00:40:12;24.80;;;18.37;;
29938;SDS011;16799;50.844;5.304;2022-10-31T00:42:38;28.90;;;16.90;;
29938;SDS011;16799;50.844;5.304;2022-10-31T00:45:06;40.80;;;18.10;;
29938;SDS011;16799;50.844;5.304;2022-10-31T00:47:35;27.93;;;18.30;;
29938;SDS011;16799;50.844;5.304;2022-10-31T00:50:02;30.20;;;17.20;;
29938;SDS011;16799;50.844;5.304;2022-10-31T00:52:31;35.53;;;18.07;;
29938;SDS011;16799;50.844;5.304;2022-10-31T00:54:57;28.87;;;18.93;;
29938;SDS011;16799;50.844;5.304;2022-10-31T00:57:22;35.63;;;18.23;;
29938;SDS011;16799;50.844;5.304;2022-10-31T00:59:48;25.03;;;16.73;;
29938;SDS011;16799;50.844;5.304;2022-10-31T01:02:14;36.40;;;16.70;;
29938;SDS011;16799;50.844;5.304;2022-10-31T01:04:39;32.90;;;17.90;;
29938;SDS011;16799;50.844;5.304;2022-10-31T01:07:05;31.77;;;16.90;;
29938;SDS011;16799;50.844;5.304;2022-10-31T01:09:30;34.33;;;17.70;;
29938;SDS011;16799;50.844;5.304;2022-10-31T01:11:56;26.90;;;17.37;;
29938;SDS011;16799;50.844;5.304;2022-10-31T01:14:22;27.63;;;18.03;;
29938;SDS011;16799;50.844;5.304;2022-10-31T01:16:47;28.07;;;20.40;;
29938;SDS011;16799;50.844;5.304;2022-10-31T01:19:13;56.77;;;19.90;;
29938;SDS011;16799;50.844;5.304;2022-10-31T01:21:39;31.23;;;18.87;;
29938;SDS011;16799;50.844;5.304;2022-10-31T01:24:04;23.10;;;16.90;;
29938;SDS011;16799;50.844;5.304;2022-10-31T01:26:31;39.80;;;20.97;;
29938;SDS011;16799;50.844;5.304;2022-10-31T01:29:01;32.40;;;17.70;;
29938;SDS011;16799;50.844;5.304;2022-10-31T01:31:30;30.97;;;17.57;;
29938;SDS011;16799;50.844;5.304;2022-10-31T01:33:58;35.67;;;17.60;;
29938;SDS011;16799;50.844;5.304;2022-10-31T01:36:31;33.67;;;19.57;;
29938;SDS011;16799;50.844;5.304;2022-10-31T01:39:02;29.33;;;16.93;;
29938;SDS011;16799;50.844;5.304;2022-10-31T01:41:35;25.77;;;16.70;;
29938;SDS011;16799;50.844;5.304;2022-10-31T01:46:43;32.97;;;17.20;;
29938;SDS011;16799;50.844;5.304;2022-10-31T01:49:12;29.83;;;17.40;;
29938;SDS011;16799;50.844;5.304;2022-10-31T01:51:51;28.83;;;17.47;;
29938;SDS011;16799;50.844;5.304;2022-10-31T01:54:43;27.00;;;17.10;;
29938;SDS011;16799;50.844;5.304;2022-10-31T01:57:13;28.97;;;17.87;;
29938;SDS011;16799;50.844;5.304;2022-10-31T01:59:43;29.87;;;17.93;;
29938;SDS011;16799;50.844;5.304;2022-10-31T02:02:14;32.23;;;19.97;;
29938;SDS011;16799;50.844;5.304;2022-10-31T02:04:41;37.13;;;19.03;;
29938;SDS011;16799;50.844;5.304;2022-10-31T02:07:09;32.77;;;18.43;;
29938;SDS011;16799;50.844;5.304;2022-10-31T02:09:38;29.10;;;16.77;;
29938;SDS011;16799;50.844;5.304;2022-10-31T02:12:05;29.43;;;16.97;;
29938;SDS011;16799;50.844;5.304;2022-10-31T02:14:32;24.83;;;16.33;;
29938;SDS011;16799;50.844;5.304;2022-10-31T02:16:58;24.57;;;15.33;;
29938;SDS011;16799;50.844;5.304;2022-10-31T02:19:30;22.07;;;17.50;;
29938;SDS011;16799;50.844;5.304;2022-10-31T02:22:21;30.50;;;16.70;;
29938;SDS011;16799;50.844;5.304;2022-10-31T02:27:41;27.17;;;16.43;;
29938;SDS011;16799;50.844;5.304;2022-10-31T02:30:20;22.03;;;16.27;;
29938;SDS011;16799;50.844;5.304;2022-10-31T02:33:10;35.03;;;15.37;;
29938;SDS011;16799;50.844;5.304;2022-10-31T02:36:21;28.03;;;16.53;;
29938;SDS011;16799;50.844;5.304;2022-10-31T02:44:20;23.90;;;15.60;;
29938;SDS011;16799;50.844;5.304;2022-10-31T02:46:52;25.60;;;16.63;;
29938;SDS011;16799;50.844;5.304;2022-10-31T02:49:27;26.57;;;16.80;;
29938;SDS011;16799;50.844;5.304;2022-10-31T02:52:34;25.70;;;18.07;;
29938;SDS011;16799;50.844;5.304;2022-10-31T02:57:49;22.67;;;16.33;;
29938;SDS011;16799;50.844;5.304;2022-10-31T03:00:17;25.13;;;16.13;;
29938;SDS011;16799;50.844;5.304;2022-10-31T03:10:46;19.07;;;13.33;;
29938;SDS011;16799;50.844;5.304;2022-10-31T03:13:24;21.43;;;13.73;;
29938;SDS011;16799;50.844;5.304;2022-10-31T03:16:16;23.00;;;11.97;;
29938;SDS011;16799;50.844;5.304;2022-10-31T03:18:49;14.63;;;12.20;;
29938;SDS011;16799;50.844;5.304;2022-10-31T03:21:23;13.30;;;11.90;;
29938;SDS011;16799;50.844;5.304;2022-10-31T03:24:04;17.10;;;13.90;;
29938;SDS011;16799;50.844;5.304;2022-10-31T03:26:31;20.50;;;14.70;;
29938;SDS011;16799;50.844;5.304;2022-10-31T03:29:00;21.83;;;15.87;;
29938;SDS011;16799;50.844;5.304;2022-10-31T03:31:30;26.70;;;16.23;;
29938;SDS011;16799;50.844;5.304;2022-10-31T03:34:00;29.13;;;16.83;;
29938;SDS011;16799;50.844;5.304;2022-10-31T03:36:28;24.43;;;16.87;;
29938;SDS011;16799;50.844;5.304;2022-10-31T03:38:57;19.00;;;13.10;;
29938;SDS011;16799;50.844;5.304;2022-10-31T03:41:25;24.80;;;16.80;;
29938;SDS011;16799;50.844;5.304;2022-10-31T03:44:00;26.53;;;14.77;;
29938;SDS011;16799;50.844;5.304;2022-10-31T03:46:30;28.53;;;17.83;;
29938;SDS011;16799;50.844;5.304;2022-10-31T03:48:56;29.40;;;18.17;;
29938;SDS011;16799;50.844;5.304;2022-10-31T03:51:28;25.13;;;16.30;;
29938;SDS011;16799;50.844;5.304;2022-10-31T03:56:48;35.97;;;16.77;;
29938;SDS011;16799;50.844;5.304;2022-10-31T03:59:20;24.03;;;13.97;;
29938;SDS011;16799;50.844;5.304;2022-10-31T04:01:57;25.23;;;15.80;;
29938;SDS011;16799;50.844;5.304;2022-10-31T04:04:27;21.17;;;14.97;;
29938;SDS011;16799;50.844;5.304;2022-10-31T04:06:55;20.03;;;14.90;;
29938;SDS011;16799;50.844;5.304;2022-10-31T04:09:22;24.80;;;15.60;;
29938;SDS011;16799;50.844;5.304;2022-10-31T04:11:51;19.93;;;14.40;;
29938;SDS011;16799;50.844;5.304;2022-10-31T04:14:19;28.50;;;15.20;;
29938;SDS011;16799;50.844;5.304;2022-10-31T04:16:47;35.33;;;15.10;;
29938;SDS011;16799;50.844;5.304;2022-10-31T04:19:13;19.20;;;12.10;;
29938;SDS011;16799;50.844;5.304;2022-10-31T04:21:39;18.57;;;14.63;;
29938;SDS011;16799;50.844;5.304;2022-10-31T04:24:08;20.70;;;12.10;;
29938;SDS011;16799;50.844;5.304;2022-10-31T04:26:34;10.77;;;9.67;;
29938;SDS011;16799;50.844;5.304;2022-10-31T04:29:00;14.60;;;12.10;;
29938;SDS011;16799;50.844;5.304;2022-10-31T04:31:26;16.77;;;13.97;;
29938;SDS011;16799;50.844;5.304;2022-10-31T04:33:51;13.40;;;10.40;;
29938;SDS011;16799;50.844;5.304;2022-10-31T04:36:17;13.10;;;10.10;;
29938;SDS011;16799;50.844;5.304;2022-10-31T04:38:43;15.57;;;12.70;;
29938;SDS011;16799;50.844;5.304;2022-10-31T04:41:09;19.63;;;14.40;;
29938;SDS011;16799;50.844;5.304;2022-10-31T04:43:34;19.07;;;12.63;;
29938;SDS011;16799;50.844;5.304;2022-10-31T04:46:00;19.33;;;11.40;;
29938;SDS011;16799;50.844;5.304;2022-10-31T04:48:26;23.10;;;12.20;;
29938;SDS011;16799;50.844;5.304;2022-10-31T04:50:51;23.47;;;13.63;;
29938;SDS011;16799;50.844;5.304;2022-10-31T04:53:17;21.17;;;14.50;;
29938;SDS011;16799;50.844;5.304;2022-10-31T04:55:42;23.00;;;13.87;;
29938;SDS011;16799;50.844;5.304;2022-10-31T04:58:08;17.63;;;12.63;;
29938;SDS011;16799;50.844;5.304;2022-10-31T05:00:34;12.07;;;10.03;;
29938;SDS011;16799;50.844;5.304;2022-10-31T05:02:59;10.93;;;9.97;;
29938;SDS011;16799;50.844;5.304;2022-10-31T05:05:27;14.17;;;12.63;;
29938;SDS011;16799;50.844;5.304;2022-10-31T05:07:54;14.17;;;12.67;;
29938;SDS011;16799;50.844;5.304;2022-10-31T05:10:20;22.93;;;14.53;;
29938;SDS011;16799;50.844;5.304;2022-10-31T05:12:48;19.23;;;12.70;;
29938;SDS011;16799;50.844;5.304;2022-10-31T05:15:16;16.90;;;12.27;;
29938;SDS011;16799;50.844;5.304;2022-10-31T05:17:43;20.23;;;11.80;;
29938;SDS011;16799;50.844;5.304;2022-10-31T05:20:09;16.00;;;12.63;;
29938;SDS011;16799;50.844;5.304;2022-10-31T05:22:36;22.43;;;13.20;;
29938;SDS011;16799;50.844;5.304;2022-10-31T05:25:01;20.63;;;13.57;;
29938;SDS011;16799;50.844;5.304;2022-10-31T05:27:27;13.47;;;12.07;;
29938;SDS011;16799;50.844;5.304;2022-10-31T05:29:53;16.77;;;11.83;;
29938;SDS011;16799;50.844;5.304;2022-10-31T05:32:19;11.83;;;10.70;;
29938;SDS011;16799;50.844;5.304;2022-10-31T05:34:44;19.37;;;13.80;;
29938;SDS011;16799;50.844;5.304;2022-10-31T05:37:10;17.07;;;13.10;;
29938;SDS011;16799;50.844;5.304;2022-10-31T05:39:36;18.00;;;13.37;;
29938;SDS011;16799;50.844;5.304;2022-10-31T05:42:01;27.53;;;11.73;;
29938;SDS011;16799;50.844;5.304;2022-10-31T05:44:27;12.33;;;10.13;;
29938;SDS011;16799;50.844;5.304;2022-10-31T05:46:52;19.33;;;12.17;;
29938;SDS011;16799;50.844;5.304;2022-10-31T05:49:18;18.30;;;12.93;;
29938;SDS011;16799;50.844;5.304;2022-10-31T05:51:44;17.57;;;11.50;;
29938;SDS011;16799;50.844;5.304;2022-10-31T05:54:09;16.77;;;12.63;;
29938;SDS011;16799;50.844;5.304;2022-10-31T05:56:35;10.97;;;9.87;;
29938;SDS011;16799;50.844;5.304;2022-10-31T05:59:00;15.63;;;12.60;;
29938;SDS011;16799;50.844;5.304;2022-10-31T06:01:26;10.73;;;9.60;;
29938;SDS011;16799;50.844;5.304;2022-10-31T06:03:52;16.07;;;11.13;;
29938;SDS011;16799;50.844;5.304;2022-10-31T06:06:17;18.73;;;11.80;;
29938;SDS011;16799;50.844;5.304;2022-10-31T06:08:43;17.37;;;12.00;;
29938;SDS011;16799;50.844;5.304;2022-10-31T06:11:09;20.53;;;11.37;;
29938;SDS011;16799;50.844;5.304;2022-10-31T06:13:34;15.70;;;11.00;;
29938;SDS011;16799;50.844;5.304;2022-10-31T06:16:00;20.80;;;12.50;;
29938;SDS011;16799;50.844;5.304;2022-10-31T06:18:25;19.47;;;13.80;;
29938;SDS011;16799;50.844;5.304;2022-10-31T06:20:51;24.30;;;14.07;;
29938;SDS011;16799;50.844;5.304;2022-10-31T06:23:17;13.37;;;11.13;;
29938;SDS011;16799;50.844;5.304;2022-10-31T06:25:42;16.50;;;11.73;;
29938;SDS011;16799;50.844;5.304;2022-10-31T06:28:08;12.43;;;10.33;;
29938;SDS011;16799;50.844;5.304;2022-10-31T06:30:33;18.17;;;14.40;;
29938;SDS011;16799;50.844;5.304;2022-10-31T06:33:05;20.60;;;13.57;;
29938;SDS011;16799;50.844;5.304;2022-10-31T06:35:31;31.30;;;19.70;;
29938;SDS011;16799;50.844;5.304;2022-10-31T06:37:57;21.27;;;15.10;;
29938;SDS011;16799;50.844;5.304;2022-10-31T06:40:22;27.37;;;16.07;;
29938;SDS011;16799;50.844;5.304;2022-10-31T06:43:09;27.47;;;14.30;;
29938;SDS011;16799;50.844;5.304;2022-10-31T06:45:36;18.50;;;13.60;;
29938;SDS011;16799;50.844;5.304;2022-10-31T06:48:02;17.70;;;15.90;;
29938;SDS011;16799;50.844;5.304;2022-10-31T06:50:27;23.83;;;14.53;;
29938;SDS011;16799;50.844;5.304;2022-10-31T06:52:54;21.40;;;14.50;;
29938;SDS011;16799;50.844;5.304;2022-10-31T06:55:23;18.83;;;15.57;;
29938;SDS011;16799;50.844;5.304;2022-10-31T06:57:53;20.67;;;15.57;;
29938;SDS011;16799;50.844;5.304;2022-10-31T07:00:20;32.77;;;17.00;;
29938;SDS011;16799;50.844;5.304;2022-10-31T07:02:53;29.93;;;17.50;;
29938;SDS011;16799;50.844;5.304;2022-10-31T07:05:19;29.60;;;16.50;;
29938;SDS011;16799;50.844;5.304;2022-10-31T07:07:44;21.97;;;13.67;;
29938;SDS011;16799;50.844;5.304;2022-10-31T07:10:10;19.93;;;13.70;;
29938;SDS011;16799;50.844;5.304;2022-10-31T07:12:36;24.97;;;15.47;;
29938;SDS011;16799;50.844;5.304;2022-10-31T07:15:01;25.73;;;15.87;;
29938;SDS011;16799;50.844;5.304;2022-10-31T07:17:28;20.50;;;15.13;;
29938;SDS011;16799;50.844;5.304;2022-10-31T07:19:53;28.00;;;16.80;;
29938;SDS011;16799;50.844;5.304;2022-10-31T07:22:19;22.83;;;14.43;;
29938;SDS011;16799;50.844;5.304;2022-10-31T07:24:45;27.40;;;16.70;;
29938;SDS011;16799;50.844;5.304;2022-10-31T07:27:10;28.00;;;16.10;;
29938;SDS011;16799;50.844;5.304;2022-10-31T07:29:36;25.60;;;16.70;;
29938;SDS011;16799;50.844;5.304;2022-10-31T07:32:01;25.47;;;16.40;;
29938;SDS011;16799;50.844;5.304;2022-10-31T07:34:27;26.40;;;16.50;;
29938;SDS011;16799;50.844;5.304;2022-10-31T07:36:53;18.87;;;16.10;;
29938;SDS011;16799;50.844;5.304;2022-10-31T07:39:19;18.40;;;12.90;;
29938;SDS011;16799;50.844;5.304;2022-10-31T07:41:44;26.33;;;14.77;;
29938;SDS011;16799;50.844;5.304;2022-10-31T07:44:10;15.20;;;11.87;;
29938;SDS011;16799;50.844;5.304;2022-10-31T07:46:35;20.20;;;13.60;;
29938;SDS011;16799;50.844;5.304;2022-10-31T07:49:01;19.60;;;14.10;;
29938;SDS011;16799;50.844;5.304;2022-10-31T07:51:27;26.43;;;12.40;;
29938;SDS011;16799;50.844;5.304;2022-10-31T07:53:53;20.70;;;15.90;;
29938;SDS011;16799;50.844;5.304;2022-10-31T07:56:18;29.20;;;16.00;;
29938;SDS011;16799;50.844;5.304;2022-10-31T07:58:44;28.13;;;17.27;;
29938;SDS011;16799;50.844;5.304;2022-10-31T08:01:10;22.70;;;17.10;;
29938;SDS011;16799;50.844;5.304;2022-10-31T08:03:35;43.73;;;15.97;;
29938;SDS011;16799;50.844;5.304;2022-10-31T08:06:01;27.23;;;16.23;;
29938;SDS011;16799;50.844;5.304;2022-10-31T08:08:27;21.07;;;15.23;;
29938;SDS011;16799;50.844;5.304;2022-10-31T08:10:53;23.23;;;15.10;;
29938;SDS011;16799;50.844;5.304;2022-10-31T08:13:19;19.13;;;14.20;;
29938;SDS011;16799;50.844;5.304;2022-10-31T08:15:45;22.97;;;14.87;;
29938;SDS011;16799;50.844;5.304;2022-10-31T08:18:15;24.93;;;14.97;;
29938;SDS011;16799;50.844;5.304;2022-10-31T08:20:41;17.63;;;14.03;;
29938;SDS011;16799;50.844;5.304;2022-10-31T08:23:08;18.43;;;13.93;;
29938;SDS011;16799;50.844;5.304;2022-10-31T08:25:34;28.00;;;15.00;;
29938;SDS011;16799;50.844;5.304;2022-10-31T08:28:00;38.67;;;19.37;;
29938;SDS011;16799;50.844;5.304;2022-10-31T08:30:27;27.23;;;18.07;;
29938;SDS011;16799;50.844;5.304;2022-10-31T08:33:36;24.37;;;17.33;;
29938;SDS011;16799;50.844;5.304;2022-10-31T08:35:44;26.30;;;16.97;;
29938;SDS011;16799;50.844;5.304;2022-10-31T08:38:10;23.63;;;14.87;;
29938;SDS011;16799;50.844;5.304;2022-10-31T08:40:37;23.60;;;13.23;;
29938;SDS011;16799;50.844;5.304;2022-10-31T08:43:04;19.10;;;13.80;;
29938;SDS011;16799;50.844;5.304;2022-10-31T08:45:37;23.60;;;14.17;;
29938;SDS011;16799;50.844;5.304;2022-10-31T08:48:04;21.30;;;14.50;;
29938;SDS011;16799;50.844;5.304;2022-10-31T08:50:32;24.37;;;12.17;;
29938;SDS011;16799;50.844;5.304;2022-10-31T08:53:00;15.60;;;11.90;;
29938;SDS011;16799;50.844;5.304;2022-10-31T08:55:30;20.13;;;12.43;;
29938;SDS011;16799;50.844;5.304;2022-10-31T08:57:57;21.40;;;12.73;;
29938;SDS011;16799;50.844;5.304;2022-10-31T09:00:23;17.43;;;12.37;;
29938;SDS011;16799;50.844;5.304;2022-10-31T09:02:56;18.03;;;12.90;;
29938;SDS011;16799;50.844;5.304;2022-10-31T09:05:23;28.43;;;14.30;;
29938;SDS011;16799;50.844;5.304;2022-10-31T09:07:48;21.40;;;13.63;;
29938;SDS011;16799;50.844;5.304;2022-10-31T09:10:14;26.30;;;15.00;;
29938;SDS011;16799;50.844;5.304;2022-10-31T09:12:40;26.67;;;15.77;;
29938;SDS011;16799;50.844;5.304;2022-10-31T09:15:06;30.33;;;16.90;;
29938;SDS011;16799;50.844;5.304;2022-10-31T09:17:32;27.97;;;17.10;;
29938;SDS011;16799;50.844;5.304;2022-10-31T09:19:58;28.33;;;16.70;;
29938;SDS011;16799;50.844;5.304;2022-10-31T09:22:24;29.00;;;16.40;;
29938;SDS011;16799;50.844;5.304;2022-10-31T09:24:49;29.67;;;14.80;;
29938;SDS011;16799;50.844;5.304;2022-10-31T09:27:15;41.77;;;15.97;;
29938;SDS011;16799;50.844;5.304;2022-10-31T09:29:40;25.93;;;15.80;;
29938;SDS011;16799;50.844;5.304;2022-10-31T09:32:06;28.10;;;17.57;;
29938;SDS011;16799;50.844;5.304;2022-10-31T09:34:32;39.13;;;18.63;;
29938;SDS011;16799;50.844;5.304;2022-10-31T09:36:57;28.00;;;16.40;;
29938;SDS011;16799;50.844;5.304;2022-10-31T09:39:23;38.13;;;20.27;;
29938;SDS011;16799;50.844;5.304;2022-10-31T09:51:00;33.40;;;19.90;;
29938;SDS011;16799;50.844;5.304;2022-10-31T09:56:06;32.03;;;19.07;;
29938;SDS011;16799;50.844;5.304;2022-10-31T09:58:37;41.30;;;21.57;;
29938;SDS011;16799;50.844;5.304;2022-10-31T10:01:09;37.07;;;18.40;;
29938;SDS011;16799;50.844;5.304;2022-10-31T10:06:54;37.77;;;17.37;;
29938;SDS011;16799;50.844;5.304;2022-10-31T10:09:24;38.27;;;17.40;;
29938;SDS011;16799;50.844;5.304;2022-10-31T10:11:54;31.73;;;18.13;;
29938;SDS011;16799;50.844;5.304;2022-10-31T10:20:35;29.50;;;16.37;;
29938;SDS011;16799;50.844;5.304;2022-10-31T10:26:07;37.63;;;17.40;;
29938;SDS011;16799;50.844;5.304;2022-10-31T10:28:38;27.23;;;17.13;;
29938;SDS011;16799;50.844;5.304;2022-10-31T10:31:09;32.13;;;18.73;;
29938;SDS011;16799;50.844;5.304;2022-10-31T10:36:46;26.30;;;18.03;;
29938;SDS011;16799;50.844;5.304;2022-10-31T10:39:29;36.53;;;18.30;;
29938;SDS011;16799;50.844;5.304;2022-10-31T10:42:09;25.20;;;15.30;;
29938;SDS011;16799;50.844;5.304;2022-10-31T10:44:56;29.80;;;16.70;;
29938;SDS011;16799;50.844;5.304;2022-10-31T10:47:42;29.23;;;16.93;;
29938;SDS011;16799;50.844;5.304;2022-10-31T10:50:17;27.07;;;15.80;;
29938;SDS011;16799;50.844;5.304;2022-10-31T10:58:15;47.87;;;18.40;;
29938;SDS011;16799;50.844;5.304;2022-10-31T11:00:41;29.33;;;14.40;;
29938;SDS011;16799;50.844;5.304;2022-10-31T11:03:11;24.60;;;15.40;;
29938;SDS011;16799;50.844;5.304;2022-10-31T11:05:40;31.47;;;16.60;;
29938;SDS011;16799;50.844;5.304;2022-10-31T11:08:11;28.87;;;14.43;;
29938;SDS011;16799;50.844;5.304;2022-10-31T11:10:58;24.27;;;16.13;;
29938;SDS011;16799;50.844;5.304;2022-10-31T11:13:24;29.60;;;17.30;;
29938;SDS011;16799;50.844;5.304;2022-10-31T11:15:59;24.10;;;16.47;;
29938;SDS011;16799;50.844;5.304;2022-10-31T11:18:34;20.97;;;15.03;;
29938;SDS011;16799;50.844;5.304;2022-10-31T11:21:04;29.57;;;17.23;;
29938;SDS011;16799;50.844;5.304;2022-10-31T11:23:31;23.30;;;14.87;;
29938;SDS011;16799;50.844;5.304;2022-10-31T11:26:04;24.07;;;15.73;;
29938;SDS011;16799;50.844;5.304;2022-10-31T11:28:41;22.50;;;14.33;;
29938;SDS011;16799;50.844;5.304;2022-10-31T11:31:08;30.73;;;14.13;;
29938;SDS011;16799;50.844;5.304;2022-10-31T11:33:39;27.77;;;12.43;;
29938;SDS011;16799;50.844;5.304;2022-10-31T11:36:21;22.53;;;15.07;;
29938;SDS011;16799;50.844;5.304;2022-10-31T11:38:49;18.27;;;14.57;;
29938;SDS011;16799;50.844;5.304;2022-10-31T11:41:17;18.70;;;14.47;;
29938;SDS011;16799;50.844;5.304;2022-10-31T11:44:00;24.47;;;13.87;;
29938;SDS011;16799;50.844;5.304;2022-10-31T11:49:00;23.77;;;13.17;;
29938;SDS011;16799;50.844;5.304;2022-10-31T11:51:27;24.97;;;14.53;;
29938;SDS011;16799;50.844;5.304;2022-10-31T11:53:59;24.77;;;13.63;;
29938;SDS011;16799;50.844;5.304;2022-10-31T11:56:27;32.77;;;13.23;;
29938;SDS011;16799;50.844;5.304;2022-10-31T11:59:03;20.97;;;11.73;;
29938;SDS011;16799;50.844;5.304;2022-10-31T12:01:32;18.07;;;13.13;;
29938;SDS011;16799;50.844;5.304;2022-10-31T12:04:11;20.53;;;12.70;;
29938;SDS011;16799;50.844;5.304;2022-10-31T12:06:38;24.23;;;13.60;;
29938;SDS011;16799;50.844;5.304;2022-10-31T12:09:20;20.77;;;13.40;;
29938;SDS011;16799;50.844;5.304;2022-10-31T12:22:42;13.10;;;11.80;;
29938;SDS011;16799;50.844;5.304;2022-10-31T12:25:35;31.93;;;14.43;;
29938;SDS011;16799;50.844;5.304;2022-10-31T12:33:44;25.70;;;13.90;;
29938;SDS011;16799;50.844;5.304;2022-10-31T12:42:19;23.30;;;12.03;;
29938;SDS011;16799;50.844;5.304;2022-10-31T12:56:46;21.13;;;13.10;;
29938;SDS011;16799;50.844;5.304;2022-10-31T13:05:00;28.67;;;13.83;;
29938;SDS011;16799;50.844;5.304;2022-10-31T13:07:37;20.63;;;13.70;;
29938;SDS011;16799;50.844;5.304;2022-10-31T13:12:38;24.30;;;13.90;;
29938;SDS011;16799;50.844;5.304;2022-10-31T13:15:12;33.53;;;13.83;;
29938;SDS011;16799;50.844;5.304;2022-10-31T13:17:45;21.23;;;14.03;;
29938;SDS011;16799;50.844;5.304;2022-10-31T13:20:19;29.17;;;14.70;;
29938;SDS011;16799;50.844;5.304;2022-10-31T13:23:42;27.10;;;14.00;;
29938;SDS011;16799;50.844;5.304;2022-10-31T13:25:53;20.47;;;14.10;;
29938;SDS011;16799;50.844;5.304;2022-10-31T13:28:23;28.70;;;14.60;;
29938;SDS011;16799;50.844;5.304;2022-10-31T13:31:00;24.93;;;14.60;;
29938;SDS011;16799;50.844;5.304;2022-10-31T13:33:31;25.87;;;14.20;;
29938;SDS011;16799;50.844;5.304;2022-10-31T13:38:52;40.83;;;15.07;;
29938;SDS011;16799;50.844;5.304;2022-10-31T13:47:01;22.70;;;14.03;;
29938;SDS011;16799;50.844;5.304;2022-10-31T13:54:51;27.20;;;12.70;;
29938;SDS011;16799;50.844;5.304;2022-10-31T13:57:32;21.53;;;12.07;;
29938;SDS011;16799;50.844;5.304;2022-10-31T14:00:04;25.20;;;12.90;;
29938;SDS011;16799;50.844;5.304;2022-10-31T14:02:47;23.87;;;12.30;;
29938;SDS011;16799;50.844;5.304;2022-10-31T14:07:45;21.33;;;11.50;;
29938;SDS011;16799;50.844;5.304;2022-10-31T14:10:22;23.83;;;12.90;;
29938;SDS011;16799;50.844;5.304;2022-10-31T14:12:49;18.77;;;11.43;;
29938;SDS011;16799;50.844;5.304;2022-10-31T14:15:16;22.37;;;12.50;;
29938;SDS011;16799;50.844;5.304;2022-10-31T14:17:57;18.73;;;10.73;;
29938;SDS011;16799;50.844;5.304;2022-10-31T14:20:31;20.30;;;11.97;;
29938;SDS011;16799;50.844;5.304;2022-10-31T14:28:43;22.43;;;14.47;;
29938;SDS011;16799;50.844;5.304;2022-10-31T14:31:27;21.20;;;12.33;;
29938;SDS011;16799;50.844;5.304;2022-10-31T14:33:57;30.07;;;12.80;;
29938;SDS011;16799;50.844;5.304;2022-10-31T14:36:35;23.17;;;15.20;;
29938;SDS011;16799;50.844;5.304;2022-10-31T14:45:24;20.13;;;12.20;;
29938;SDS011;16799;50.844;5.304;2022-10-31T14:50:41;26.27;;;13.30;;
29938;SDS011;16799;50.844;5.304;2022-10-31T14:53:30;36.10;;;14.47;;
29938;SDS011;16799;50.844;5.304;2022-10-31T14:55:59;19.90;;;11.57;;
29938;SDS011;16799;50.844;5.304;2022-10-31T15:00:57;22.20;;;12.40;;
29938;SDS011;16799;50.844;5.304;2022-10-31T15:06:02;18.07;;;13.00;;
29938;SDS011;16799;50.844;5.304;2022-10-31T15:08:37;19.33;;;12.63;;
29938;SDS011;16799;50.844;5.304;2022-10-31T15:11:11;16.50;;;11.53;;
29938;SDS011;16799;50.844;5.304;2022-10-31T15:16:16;12.63;;;8.00;;
29938;SDS011;16799;50.844;5.304;2022-10-31T15:18:58;15.43;;;8.80;;
29938;SDS011;16799;50.844;5.304;2022-10-31T15:21:26;16.87;;;6.30;;
29938;SDS011;16799;50.844;5.304;2022-10-31T15:23:57;13.20;;;6.17;;
29938;SDS011;16799;50.844;5.304;2022-10-31T15:26:31;13.87;;;6.80;;
29938;SDS011;16799;50.844;5.304;2022-10-31T15:29:04;18.30;;;6.70;;
29938;SDS011;16799;50.844;5.304;2022-10-31T15:31:36;7.80;;;5.13;;
29938;SDS011;16799;50.844;5.304;2022-10-31T15:34:14;5.63;;;4.93;;
29938;SDS011;16799;50.844;5.304;2022-10-31T15:36:49;12.23;;;5.30;;
29938;SDS011;16799;50.844;5.304;2022-10-31T15:39:15;14.33;;;5.97;;
29938;SDS011;16799;50.844;5.304;2022-10-31T15:44:19;6.80;;;5.67;;
29938;SDS011;16799;50.844;5.304;2022-10-31T15:47:04;8.13;;;5.03;;
29938;SDS011;16799;50.844;5.304;2022-10-31T15:52:07;10.50;;;5.50;;
29938;SDS011;16799;50.844;5.304;2022-10-31T15:54:34;25.17;;;6.80;;
29938;SDS011;16799;50.844;5.304;2022-10-31T15:57:01;19.33;;;5.67;;
29938;SDS011;16799;50.844;5.304;2022-10-31T15:59:27;17.33;;;6.03;;
29938;SDS011;16799;50.844;5.304;2022-10-31T16:01:59;8.87;;;7.53;;
29938;SDS011;16799;50.844;5.304;2022-10-31T16:04:26;14.87;;;8.57;;
29938;SDS011;16799;50.844;5.304;2022-10-31T16:07:02;15.87;;;8.83;;
29938;SDS011;16799;50.844;5.304;2022-10-31T16:09:48;7.50;;;6.20;;
29938;SDS011;16799;50.844;5.304;2022-10-31T16:12:14;16.37;;;6.20;;
29938;SDS011;16799;50.844;5.304;2022-10-31T16:14:40;13.27;;;6.17;;
29938;SDS011;16799;50.844;5.304;2022-10-31T16:17:10;16.60;;;7.30;;
29938;SDS011;16799;50.844;5.304;2022-10-31T16:19:42;14.40;;;6.07;;
29938;SDS011;16799;50.844;5.304;2022-10-31T16:22:21;8.10;;;6.50;;
29938;SDS011;16799;50.844;5.304;2022-10-31T16:24:54;14.57;;;5.10;;
29938;SDS011;16799;50.844;5.304;2022-10-31T16:27:36;7.13;;;6.47;;
29938;SDS011;16799;50.844;5.304;2022-10-31T16:30:27;10.00;;;5.10;;
29938;SDS011;16799;50.844;5.304;2022-10-31T16:33:03;16.43;;;8.87;;
29938;SDS011;16799;50.844;5.304;2022-10-31T16:35:33;18.60;;;8.90;;
29938;SDS011;16799;50.844;5.304;2022-10-31T16:38:01;14.83;;;6.60;;
29938;SDS011;16799;50.844;5.304;2022-10-31T16:40:27;17.07;;;9.20;;
29938;SDS011;16799;50.844;5.304;2022-10-31T16:42:55;24.23;;;11.27;;
29938;SDS011;16799;50.844;5.304;2022-10-31T16:45:23;15.80;;;9.97;;
29938;SDS011;16799;50.844;5.304;2022-10-31T16:47:51;15.70;;;8.27;;
29938;SDS011;16799;50.844;5.304;2022-10-31T16:50:18;13.90;;;7.60;;
29938;SDS011;16799;50.844;5.304;2022-10-31T16:52:46;12.60;;;7.90;;
29938;SDS011;16799;50.844;5.304;2022-10-31T16:55:16;17.63;;;7.00;;
29938;SDS011;16799;50.844;5.304;2022-10-31T16:57:44;28.23;;;7.57;;
29938;SDS011;16799;50.844;5.304;2022-10-31T17:00:16;22.93;;;8.90;;
29938;SDS011;16799;50.844;5.304;2022-10-31T17:02:45;22.87;;;7.30;;
29938;SDS011;16799;50.844;5.304;2022-10-31T17:05:12;21.93;;;6.60;;